createdAt,value
2022-11-06T06:15:51.189Z,12.10
2022-11-06T06:25:52.206Z,11.79
2022-11-06T06:35:51.330Z,12.18
2022-11-06T06:45:51.336Z,13.19
2022-11-06T06:55:51.300Z,12.37
2022-11-06T07:05:51.223Z,12.14
2022-11-06T07:15:51.277Z,14.87
2022-11-06T07:25:51.434Z,16.65
2022-11-06T07:35:51.350Z,16.71
2022-11-06T07:45:51.276Z,15.64
2022-11-06T07:55:51.499Z,14.85
2022-11-06T08:05:51.463Z,14.25
2022-11-06T08:15:51.505Z,13.66
2022-11-06T08:25:51.704Z,14.92
2022-11-06T08:35:51.804Z,16.55
2022-11-06T08:45:51.720Z,18.31
2022-11-06T08:55:51.777Z,16.11
2022-11-06T09:05:51.706Z,18.21
2022-11-06T09:15:51.690Z,16.76
2022-11-06T09:25:51.883Z,15.86
2022-11-06T09:35:51.704Z,15.33
2022-11-06T09:45:54.861Z,16.08
2022-11-06T09:55:51.887Z,13.70
2022-11-06T10:05:51.741Z,17.47
2022-11-06T10:15:51.737Z,20.62
2022-11-06T10:25:51.712Z,16.55
2022-11-06T10:35:51.677Z,18.24
2022-11-06T10:45:51.804Z,18.28
2022-11-06T10:55:51.710Z,18.37
2022-11-06T11:05:51.825Z,18.96
2022-11-06T11:15:51.728Z,18.63
2022-11-06T11:25:51.790Z,21.29
2022-11-06T11:35:51.770Z,20.12
2022-11-06T11:45:51.890Z,16.95
2022-11-06T11:55:51.870Z,19.25
2022-11-06T12:05:51.846Z,16.30
2022-11-06T12:15:51.823Z,13.88
2022-11-06T12:25:51.913Z,19.51
2022-11-06T12:35:51.732Z,17.90
2022-11-06T12:45:51.895Z,11.37
2022-11-06T12:55:51.879Z,15.82
2022-11-06T13:05:51.962Z,17.23
2022-11-06T13:15:51.789Z,17.21
2022-11-06T13:25:51.916Z,13.58
2022-11-06T13:35:51.970Z,15.04
2022-11-06T13:45:51.872Z,13.43
2022-11-06T13:55:51.983Z,16.16
2022-11-06T14:05:51.769Z,15.15
2022-11-06T14:15:51.890Z,13.21
2022-11-06T14:25:51.954Z,9.28
2022-11-06T14:35:52.079Z,9.44
2022-11-06T14:45:52.138Z,10.17
2022-11-06T14:55:52.279Z,8.42
2022-11-06T15:05:52.875Z,7.19
2022-11-06T15:15:52.232Z,6.22
2022-11-06T15:25:52.267Z,7.84
2022-11-06T15:35:52.239Z,9.31
2022-11-06T15:45:52.196Z,9.70
2022-11-06T15:55:52.136Z,12.59
2022-11-06T16:05:52.342Z,12.80
2022-11-06T16:15:52.239Z,9.18
2022-11-06T16:25:52.219Z,10.50
2022-11-06T16:35:55.377Z,11.04
2022-11-06T16:45:52.331Z,12.23
2022-11-06T16:55:52.367Z,11.30
2022-11-06T17:05:52.366Z,13.71
2022-11-06T17:15:52.377Z,16.84
2022-11-06T17:25:52.211Z,23.00
2022-11-06T17:35:52.422Z,24.07
2022-11-06T17:45:52.244Z,18.71
2022-11-06T17:55:52.516Z,15.54
2022-11-06T18:05:52.646Z,13.78
2022-11-06T18:15:52.484Z,11.42
2022-11-06T18:25:52.510Z,7.64
2022-11-06T18:35:52.607Z,6.63
2022-11-06T18:45:52.447Z,11.00
2022-11-06T18:55:52.630Z,13.45
2022-11-06T19:05:52.578Z,14.05
2022-11-06T19:15:52.575Z,11.11
